Time;durP1;ratioP1;P1;durP2;ratioP2;P2;SDS_P1;SDS_P2;PMS_P1;PMS_P2;Temp;Humidity;BMP_temperature;BMP_pressure;BME280_temperature;BME280_humidity;BME280_pressure;Samples;Min_cycle;Max_cycle;Signal;HPM_P1;HPM_P2
2023/05/27 00:01:32;;;;;;;0.82;0.60;;;13.90;99.90;;;;;;5054884;28;20225;-65
2023/05/27 00:04:00;;;;;;;0.70;0.57;;;13.90;99.90;;;;;;5060771;28;20504;-65
2023/05/27 00:06:29;;;;;;;0.70;0.50;;;13.90;99.90;;;;;;5067534;28;20214;-64
2023/05/27 00:08:56;;;;;;;1.45;0.70;;;13.90;99.90;;;;;;5053173;28;20211;-65
2023/05/27 00:11:25;;;;;;;2.05;0.73;;;13.90;99.90;;;;;;5060019;28;20204;-64
2023/05/27 00:13:53;;;;;;;1.00;0.50;;;13.90;99.90;;;;;;5051991;28;20203;-65
2023/05/27 00:16:21;;;;;;;1.42;0.45;;;13.80;99.90;;;;;;5055446;28;20203;-64
2023/05/27 00:18:52;;;;;;;0.85;0.55;;;13.80;99.90;;;;;;5059052;28;20287;-65
2023/05/27 00:21:20;;;;;;;0.60;0.40;;;13.80;99.90;;;;;;5052001;28;20199;-65
2023/05/27 00:23:48;;;;;;;1.65;0.75;;;13.80;99.90;;;;;;5052059;28;20632;-64
2023/05/27 00:26:16;;;;;;;1.90;1.17;;;13.80;99.90;;;;;;5054457;28;20219;-65
2023/05/27 00:28:44;;;;;;;1.08;0.80;;;13.80;99.90;;;;;;5057226;28;20212;-64
2023/05/27 00:31:12;;;;;;;1.08;0.75;;;13.70;99.90;;;;;;5051864;28;20214;-64
2023/05/27 00:33:40;;;;;;;2.15;0.65;;;13.70;99.90;;;;;;5057448;28;20210;-65
2023/05/27 00:36:09;;;;;;;0.90;0.55;;;13.70;99.90;;;;;;5068588;28;20206;-64
2023/05/27 00:38:37;;;;;;;3.53;1.30;;;13.70;99.90;;;;;;5057933;28;20218;-64
2023/05/27 00:41:06;;;;;;;0.70;0.57;;;13.70;99.90;;;;;;5061672;28;20281;-65
2023/05/27 00:43:34;;;;;;;0.98;0.80;;;13.70;99.90;;;;;;5058562;28;20724;-65
2023/05/27 00:46:02;;;;;;;0.80;0.60;;;13.70;99.90;;;;;;5051434;28;20262;-63
2023/05/27 00:48:30;;;;;;;1.10;0.70;;;13.60;99.90;;;;;;5051889;28;20547;-63
2023/05/27 00:50:58;;;;;;;0.63;0.63;;;13.70;99.90;;;;;;5051641;28;20285;-63
2023/05/27 00:53:28;;;;;;;6.50;1.77;;;13.70;99.90;;;;;;5057534;28;20735;-63
2023/05/27 00:55:58;;;;;;;0.60;0.50;;;13.70;99.90;;;;;;5055466;28;20235;-63
2023/05/27 00:58:27;;;;;;;1.35;0.70;;;13.60;99.90;;;;;;5043482;28;20670;-63
2023/05/27 01:00:56;;;;;;;1.10;0.70;;;13.60;99.90;;;;;;5051218;28;20231;-63
2023/05/27 01:03:24;;;;;;;0.77;0.50;;;13.60;99.90;;;;;;5054318;28;20203;-65
2023/05/27 01:06:00;;;;;;;0.70;0.60;;;13.60;99.90;;;;;;5062481;28;20235;-65
2023/05/27 01:08:35;;;;;;;2.08;0.70;;;13.60;99.90;;;;;;5051645;28;20199;-65
2023/05/27 01:11:08;;;;;;;1.65;0.82;;;13.60;99.90;;;;;;5052922;28;20600;-64
2023/05/27 01:13:42;;;;;;;0.60;0.50;;;13.60;99.90;;;;;;5050897;28;20264;-64
2023/05/27 01:16:12;;;;;;;1.13;0.70;;;13.60;99.90;;;;;;5050888;28;20211;-64
2023/05/27 01:18:41;;;;;;;0.60;0.50;;;13.60;99.90;;;;;;5051123;28;20204;-65
2023/05/27 01:21:13;;;;;;;0.60;0.50;;;13.50;99.90;;;;;;5050804;28;20247;-65
2023/05/27 01:23:44;;;;;;;1.30;0.70;;;13.50;99.90;;;;;;5050908;28;20207;-64
2023/05/27 01:26:12;;;;;;;0.75;0.43;;;13.50;99.90;;;;;;5053723;28;20207;-65
2023/05/27 01:28:41;;;;;;;0.93;0.57;;;13.50;99.90;;;;;;5050995;28;20246;-64
2023/05/27 01:31:13;;;;;;;1.25;0.90;;;13.50;99.90;;;;;;5050463;28;20666;-64
2023/05/27 01:33:45;;;;;;;2.45;0.60;;;13.50;99.90;;;;;;5064545;28;20286;-64
2023/05/27 01:36:17;;;;;;;2.28;0.60;;;13.50;99.90;;;;;;5060659;28;20214;-64
2023/05/27 01:38:49;;;;;;;1.08;0.60;;;13.50;99.90;;;;;;5050766;28;20344;-64
2023/05/27 01:41:17;;;;;;;0.60;0.50;;;13.50;99.90;;;;;;5050444;28;20281;-64
2023/05/27 01:43:46;;;;;;;1.00;0.93;;;13.30;99.90;;;;;;5053670;28;20214;-64
2023/05/27 01:46:15;;;;;;;0.65;0.60;;;13.30;99.90;;;;;;5050661;28;20210;-63
2023/05/27 01:48:43;;;;;;;1.33;0.68;;;13.30;99.90;;;;;;5049882;28;20214;-63
2023/05/27 01:51:11;;;;;;;0.63;0.55;;;13.20;99.90;;;;;;5050000;28;20201;-63
2023/05/27 01:53:38;;;;;;;0.90;0.73;;;13.30;99.90;;;;;;5050643;28;20817;-64
2023/05/27 01:56:08;;;;;;;1.35;0.70;;;13.20;99.90;;;;;;5050213;28;20231;-64
2023/05/27 01:58:36;;;;;;;0.60;0.50;;;13.20;99.90;;;;;;5050469;28;20215;-64
2023/05/27 02:01:04;;;;;;;1.35;0.60;;;13.20;99.90;;;;;;5053388;28;20729;-64
2023/05/27 02:03:32;;;;;;;1.00;0.65;;;13.20;99.90;;;;;;5049200;28;20253;-64
2023/05/27 02:06:00;;;;;;;0.90;0.65;;;13.20;99.90;;;;;;5050406;28;20214;-64
2023/05/27 02:08:28;;;;;;;1.05;0.50;;;13.10;99.90;;;;;;5049984;28;20200;-64
2023/05/27 02:10:55;;;;;;;0.80;0.52;;;13.10;99.90;;;;;;5050135;28;20220;-64
2023/05/27 02:13:25;;;;;;;0.77;0.63;;;13.00;99.90;;;;;;5050155;28;20211;-64
2023/05/27 02:15:53;;;;;;;1.20;0.70;;;13.00;99.90;;;;;;5050251;28;20204;-64
2023/05/27 02:18:21;;;;;;;0.60;0.50;;;13.00;99.90;;;;;;5053139;28;20235;-64
2023/05/27 02:20:49;;;;;;;0.68;0.60;;;13.00;99.90;;;;;;5054195;28;20230;-64
2023/05/27 02:23:17;;;;;;;0.70;0.52;;;13.00;99.90;;;;;;5053691;28;20240;-64
2023/05/27 02:25:45;;;;;;;1.90;0.50;;;13.00;99.90;;;;;;5054004;28;20211;-63
2023/05/27 02:28:13;;;;;;;0.70;0.60;;;12.90;99.90;;;;;;5054009;28;20626;-64
2023/05/27 02:30:42;;;;;;;0.90;0.70;;;12.90;99.90;;;;;;5054207;28;20215;-64
2023/05/27 02:33:10;;;;;;;1.48;0.80;;;12.90;99.90;;;;;;5061480;28;20269;-64
2023/05/27 02:35:39;;;;;;;1.02;0.63;;;12.80;99.90;;;;;;5065671;28;20287;-63
2023/05/27 02:38:07;;;;;;;0.60;0.40;;;12.80;99.90;;;;;;5054031;28;20214;-63
2023/05/27 02:40:35;;;;;;;1.05;0.63;;;12.80;99.90;;;;;;5054046;28;20224;-63
2023/05/27 02:43:03;;;;;;;0.70;0.50;;;12.70;99.90;;;;;;5053799;28;20218;-63
2023/05/27 02:45:31;;;;;;;0.70;0.60;;;12.80;99.90;;;;;;5045907;28;20200;-63
2023/05/27 02:48:01;;;;;;;0.73;0.50;;;12.70;99.90;;;;;;5053752;28;20291;-64
2023/05/27 02:50:29;;;;;;;1.30;0.52;;;12.70;99.90;;;;;;5054378;28;20702;-65
2023/05/27 02:52:57;;;;;;;1.30;0.60;;;12.70;99.90;;;;;;5057198;28;20200;-65
2023/05/27 02:55:25;;;;;;;1.27;0.60;;;12.80;99.90;;;;;;5053445;28;20223;-65
2023/05/27 02:57:53;;;;;;;0.60;0.40;;;12.70;99.90;;;;;;5053882;28;20261;-65
2023/05/27 03:00:21;;;;;;;1.13;0.60;;;12.70;99.90;;;;;;5053574;28;20639;-65
2023/05/27 03:02:49;;;;;;;0.80;0.60;;;12.60;99.90;;;;;;5059029;28;20207;-64
2023/05/27 03:05:18;;;;;;;0.70;0.60;;;12.60;99.90;;;;;;5071740;28;20253;-64
2023/05/27 03:07:46;;;;;;;2.45;1.02;;;12.60;99.90;;;;;;5054515;28;20223;-64
2023/05/27 03:10:14;;;;;;;1.40;0.77;;;12.60;99.90;;;;;;5055657;28;20228;-64
2023/05/27 03:12:42;;;;;;;0.80;0.57;;;12.50;99.90;;;;;;5053247;28;20200;-64
2023/05/27 03:15:10;;;;;;;0.70;0.70;;;12.50;99.90;;;;;;5053129;28;20671;-65
2023/05/27 03:17:39;;;;;;;1.00;0.70;;;12.50;99.90;;;;;;5053253;28;20200;-65
2023/05/27 03:20:08;;;;;;;1.13;0.65;;;12.60;99.90;;;;;;5053382;28;20293;-64
2023/05/27 03:22:38;;;;;;;0.60;0.50;;;12.60;99.90;;;;;;5045429;28;20220;-64
2023/05/27 03:25:07;;;;;;;1.42;0.90;;;12.50;99.90;;;;;;5056802;28;20203;-63
2023/05/27 03:27:35;;;;;;;0.60;0.47;;;12.40;99.90;;;;;;5045391;28;20208;-63
2023/05/27 03:30:04;;;;;;;0.70;0.60;;;12.40;99.90;;;;;;5052651;28;20290;-64
2023/05/27 03:32:32;;;;;;;1.80;0.70;;;12.40;99.90;;;;;;5056214;28;20196;-65
2023/05/27 03:35:01;;;;;;;0.70;0.50;;;12.40;99.90;;;;;;5072778;28;20207;-65
2023/05/27 03:37:28;;;;;;;3.38;0.77;;;12.40;99.90;;;;;;5053461;28;20219;-64
2023/05/27 03:39:58;;;;;;;0.60;0.40;;;12.40;99.90;;;;;;5052892;28;20231;-64
2023/05/27 03:42:26;;;;;;;0.93;0.50;;;12.40;99.90;;;;;;5056661;28;20219;-64
2023/05/27 03:44:54;;;;;;;0.68;0.50;;;12.40;99.90;;;;;;5052708;28;20204;-63
2023/05/27 03:47:21;;;;;;;0.65;0.50;;;12.40;99.90;;;;;;5052066;28;20249;-64
2023/05/27 03:49:50;;;;;;;1.08;1.00;;;12.30;99.90;;;;;;5052635;28;20228;-64
2023/05/27 03:52:17;;;;;;;0.70;0.50;;;12.20;99.90;;;;;;5052800;28;20228;-65
2023/05/27 03:54:45;;;;;;;1.95;0.55;;;12.20;99.90;;;;;;5052552;28;20223;-63
2023/05/27 03:57:15;;;;;;;0.60;0.52;;;12.30;99.90;;;;;;5052154;28;20297;-63
2023/05/27 03:59:43;;;;;;;0.93;0.60;;;12.30;99.90;;;;;;5056780;28;20773;-63
2023/05/27 04:02:12;;;;;;;1.45;0.70;;;12.40;99.90;;;;;;5052159;28;20647;-63
2023/05/27 04:04:40;;;;;;;0.70;0.50;;;12.40;99.90;;;;;;5070282;28;20200;-63
2023/05/27 04:07:08;;;;;;;0.70;0.70;;;12.30;99.90;;;;;;5052339;28;20269;-64
2023/05/27 04:09:36;;;;;;;0.88;0.70;;;12.30;99.90;;;;;;5044397;28;20223;-64
2023/05/27 04:12:05;;;;;;;1.20;1.00;;;12.30;99.90;;;;;;5052503;28;20211;-64
2023/05/27 04:14:35;;;;;;;1.40;0.82;;;12.20;99.90;;;;;;5051780;28;20261;-63
2023/05/27 04:17:03;;;;;;;0.80;0.60;;;12.20;99.90;;;;;;5052734;28;20208;-64
2023/05/27 04:19:32;;;;;;;0.88;0.50;;;12.10;99.90;;;;;;5052009;28;20231;-64
2023/05/27 04:22:00;;;;;;;0.70;0.70;;;12.10;99.90;;;;;;5052145;28;20219;-63
2023/05/27 04:24:28;;;;;;;1.83;0.80;;;12.10;99.90;;;;;;5051723;28;20218;-63
2023/05/27 04:26:56;;;;;;;0.80;0.60;;;12.20;99.90;;;;;;5052180;28;20214;-64
2023/05/27 04:29:24;;;;;;;4.60;0.90;;;12.10;99.90;;;;;;5053657;28;20725;-63
2023/05/27 04:31:53;;;;;;;0.60;0.50;;;12.20;99.90;;;;;;5056953;28;20216;-65
2023/05/27 04:34:21;;;;;;;0.98;0.50;;;12.20;99.90;;;;;;5063744;28;20260;-64
2023/05/27 04:36:49;;;;;;;1.13;0.90;;;12.20;99.90;;;;;;5052011;28;20212;-64
2023/05/27 04:39:17;;;;;;;3.22;0.77;;;12.20;99.90;;;;;;5052509;28;20231;-63
2023/05/27 04:41:45;;;;;;;1.77;0.70;;;12.20;99.90;;;;;;5058081;28;20686;-64
2023/05/27 04:44:13;;;;;;;1.80;1.60;;;12.30;99.90;;;;;;5051237;28;20555;-65
2023/05/27 04:46:43;;;;;;;1.02;0.57;;;12.30;99.90;;;;;;5051552;28;20210;-64
2023/05/27 04:49:12;;;;;;;0.90;0.60;;;12.40;99.90;;;;;;5051788;28;20578;-65
2023/05/27 04:51:41;;;;;;;2.35;0.88;;;12.40;99.90;;;;;;5049647;28;20235;-64
2023/05/27 04:54:09;;;;;;;0.70;0.47;;;12.50;99.90;;;;;;5051358;28;20701;-65
2023/05/27 04:56:37;;;;;;;0.98;0.73;;;12.60;99.90;;;;;;5051167;28;20230;-64
2023/05/27 04:59:05;;;;;;;1.60;0.80;;;12.70;99.90;;;;;;5051548;28;20228;-65
2023/05/27 05:01:48;;;;;;;0.70;0.70;;;12.80;99.90;;;;;;5050848;28;20290;-65
2023/05/27 05:04:18;;;;;;;0.60;0.50;;;12.80;99.90;;;;;;5067771;28;20556;-64
2023/05/27 05:06:46;;;;;;;0.77;0.50;;;12.90;99.90;;;;;;5059479;28;20215;-65
2023/05/27 05:09:14;;;;;;;0.77;0.55;;;13.00;99.90;;;;;;5054353;28;20227;-64
2023/05/27 05:11:42;;;;;;;1.23;0.93;;;13.10;99.90;;;;;;5051303;28;20204;-63
2023/05/27 05:14:10;;;;;;;0.70;0.60;;;13.20;99.90;;;;;;5058666;28;20211;-64
2023/05/27 05:16:38;;;;;;;2.63;0.68;;;13.30;99.90;;;;;;5050274;28;20195;-63
2023/05/27 05:19:06;;;;;;;0.60;0.50;;;13.40;99.90;;;;;;5050725;28;20224;-64
2023/05/27 05:21:36;;;;;;;0.60;0.40;;;13.40;99.90;;;;;;5049860;28;20777;-64
2023/05/27 05:24:04;;;;;;;0.70;0.55;;;13.50;99.90;;;;;;5053456;28;20724;-64
2023/05/27 05:26:33;;;;;;;0.80;0.50;;;13.60;99.90;;;;;;5049526;28;20204;-64
2023/05/27 05:29:01;;;;;;;2.20;1.02;;;13.70;99.90;;;;;;5050380;28;20212;-64
2023/05/27 05:31:29;;;;;;;0.95;0.65;;;13.80;99.90;;;;;;5049793;28;20330;-63
2023/05/27 05:33:57;;;;;;;1.00;0.60;;;13.80;99.90;;;;;;5051797;28;20200;-63
2023/05/27 05:36:25;;;;;;;0.80;0.75;;;13.80;99.90;;;;;;5050830;28;20200;-64
2023/05/27 05:38:54;;;;;;;0.70;0.50;;;13.90;99.90;;;;;;5050084;28;20222;-62
2023/05/27 05:41:22;;;;;;;0.60;0.50;;;14.00;99.90;;;;;;5053025;28;20243;-63
2023/05/27 05:43:50;;;;;;;1.08;0.80;;;14.10;99.90;;;;;;5050046;28;20215;-64
2023/05/27 05:46:18;;;;;;;1.00;0.70;;;14.10;99.90;;;;;;5050076;28;20208;-64
2023/05/27 05:48:46;;;;;;;3.75;1.25;;;14.20;99.90;;;;;;5050284;28;20242;-63
2023/05/27 05:51:15;;;;;;;0.88;0.52;;;14.20;99.90;;;;;;5045823;28;20218;-63
2023/05/27 05:53:43;;;;;;;1.00;0.70;;;14.20;99.90;;;;;;5048676;28;20232;-63
2023/05/27 05:56:13;;;;;;;0.80;0.70;;;14.30;99.90;;;;;;5045953;28;20227;-63
2023/05/27 05:58:40;;;;;;;0.65;0.50;;;14.50;99.90;;;;;;5054573;28;20732;-62
2023/05/27 06:01:08;;;;;;;1.50;0.60;;;14.60;99.90;;;;;;5045122;28;20207;-65
2023/05/27 06:03:37;;;;;;;1.02;0.50;;;14.70;99.90;;;;;;5052254;28;20328;-63
2023/05/27 06:06:05;;;;;;;1.33;0.70;;;14.70;99.90;;;;;;5045863;28;20261;-64
2023/05/27 06:08:33;;;;;;;0.60;0.43;;;14.80;99.90;;;;;;5047322;28;20643;-64
2023/05/27 06:11:01;;;;;;;0.85;0.60;;;14.90;99.90;;;;;;5045227;28;20224;-64
2023/05/27 06:13:30;;;;;;;1.60;0.68;;;14.90;99.90;;;;;;5045847;28;20200;-64
2023/05/27 06:15:58;;;;;;;0.68;0.52;;;15.00;99.90;;;;;;5046336;28;20208;-64
2023/05/27 06:18:26;;;;;;;0.95;0.63;;;15.00;99.90;;;;;;5045969;28;20262;-64
2023/05/27 06:20:54;;;;;;;1.35;0.68;;;14.90;99.90;;;;;;5047439;28;20228;-63
2023/05/27 06:23:22;;;;;;;0.80;0.70;;;15.00;99.90;;;;;;5046492;28;20220;-64
2023/05/27 06:25:50;;;;;;;0.63;0.50;;;15.00;99.90;;;;;;5046469;28;20203;-65
2023/05/27 06:28:18;;;;;;;2.15;0.70;;;15.00;99.90;;;;;;5047020;28;20215;-65
2023/05/27 06:30:47;;;;;;;0.90;0.68;;;15.10;99.90;;;;;;5049338;28;20239;-64
2023/05/27 06:33:15;;;;;;;1.02;0.93;;;15.10;99.90;;;;;;5051491;28;20613;-64
2023/05/27 06:35:44;;;;;;;0.70;0.60;;;15.10;99.90;;;;;;5048573;28;20686;-64
2023/05/27 06:38:11;;;;;;;0.70;0.47;;;15.20;99.90;;;;;;5045688;28;20277;-64
2023/05/27 06:40:39;;;;;;;1.33;0.80;;;15.30;99.90;;;;;;5046866;28;20289;-64
2023/05/27 06:43:07;;;;;;;0.68;0.52;;;15.40;99.90;;;;;;5047558;28;20590;-63
2023/05/27 06:45:35;;;;;;;1.00;0.65;;;15.40;99.90;;;;;;5046746;28;20265;-64
2023/05/27 06:48:05;;;;;;;1.90;1.00;;;15.50;99.90;;;;;;5045953;28;20227;-64
2023/05/27 06:50:33;;;;;;;0.60;0.40;;;15.70;99.90;;;;;;5049544;28;20232;-64
2023/05/27 06:53:01;;;;;;;0.60;0.40;;;15.70;99.90;;;;;;5045854;28;20200;-65
2023/05/27 06:55:29;;;;;;;1.00;1.00;;;15.80;99.90;;;;;;5045452;28;20278;-64
2023/05/27 06:57:57;;;;;;;0.60;0.50;;;15.90;99.90;;;;;;5049529;28;20216;-63
2023/05/27 07:00:25;;;;;;;1.05;0.95;;;16.00;99.90;;;;;;5045489;28;20220;-64
2023/05/27 07:02:53;;;;;;;1.20;0.70;;;15.90;99.90;;;;;;5047796;28;20204;-63
2023/05/27 07:05:23;;;;;;;1.15;1.05;;;16.00;99.90;;;;;;5048737;28;20204;-64
2023/05/27 07:07:51;;;;;;;0.60;0.50;;;16.10;99.90;;;;;;5047976;28;20290;-64
2023/05/27 07:10:18;;;;;;;0.63;0.40;;;16.10;99.90;;;;;;5049337;28;20232;-64
2023/05/27 07:12:46;;;;;;;1.02;0.77;;;16.00;99.90;;;;;;5045499;28;20223;-64
2023/05/27 07:15:14;;;;;;;0.80;0.55;;;16.10;99.90;;;;;;5049252;28;20199;-65
2023/05/27 07:17:42;;;;;;;0.95;0.60;;;16.10;99.90;;;;;;5047802;28;20721;-64
2023/05/27 07:20:12;;;;;;;1.55;1.45;;;16.20;99.90;;;;;;5049147;28;20223;-64
2023/05/27 07:22:41;;;;;;;0.60;0.43;;;16.30;99.90;;;;;;5047755;28;20286;-64
2023/05/27 07:25:10;;;;;;;1.17;1.10;;;16.50;99.90;;;;;;5048742;28;20285;-65
2023/05/27 07:27:38;;;;;;;0.60;0.50;;;16.70;99.90;;;;;;5048989;28;20215;-64
2023/05/27 07:30:08;;;;;;;0.60;0.45;;;16.70;99.90;;;;;;5051249;28;20219;-63
2023/05/27 07:32:36;;;;;;;1.25;0.75;;;16.70;99.90;;;;;;5050094;28;20258;-64
2023/05/27 07:35:05;;;;;;;0.60;0.50;;;16.60;99.90;;;;;;5048474;28;20682;-63
2023/05/27 07:37:33;;;;;;;0.70;0.50;;;16.60;99.90;;;;;;5048822;28;20214;-63
2023/05/27 07:40:02;;;;;;;1.38;1.27;;;16.70;99.90;;;;;;5047272;28;20227;-63
2023/05/27 07:42:30;;;;;;;0.70;0.40;;;16.80;99.90;;;;;;5049490;28;20208;-64
2023/05/27 07:45:00;;;;;;;0.90;0.55;;;17.00;99.90;;;;;;5048318;28;20238;-64
2023/05/27 07:47:28;;;;;;;1.23;0.65;;;17.20;99.90;;;;;;5049375;28;20199;-64
2023/05/27 07:49:56;;;;;;;1.30;0.63;;;17.30;99.90;;;;;;5047667;28;20242;-64
2023/05/27 07:52:24;;;;;;;0.60;0.40;;;17.10;99.90;;;;;;5048149;28;20218;-64
2023/05/27 07:54:52;;;;;;;0.80;0.70;;;17.30;99.90;;;;;;5049427;28;20210;-64
2023/05/27 07:57:24;;;;;;;0.70;0.63;;;17.40;99.90;;;;;;5049778;28;20293;-63
2023/05/27 07:59:51;;;;;;;1.25;0.80;;;17.40;99.90;;;;;;5048172;28;20281;-64
2023/05/27 08:05:11;;;;;;;1.15;0.88;;;17.60;99.90;;;;;;5054924;28;20248;-63
2023/05/27 08:07:39;;;;;;;0.60;0.40;;;17.70;99.90;;;;;;5050406;28;20203;-63
2023/05/27 08:10:08;;;;;;;2.05;0.52;;;17.70;99.90;;;;;;5047230;28;20242;-64
2023/05/27 08:12:37;;;;;;;0.73;0.73;;;17.60;99.90;;;;;;5048008;28;20207;-65
2023/05/27 08:15:07;;;;;;;0.70;0.70;;;17.70;99.90;;;;;;5049631;28;20841;-63
2023/05/27 08:17:35;;;;;;;0.70;0.40;;;17.80;99.90;;;;;;5048179;28;20207;-64
2023/05/27 08:20:05;;;;;;;1.05;0.70;;;17.90;99.90;;;;;;5049144;28;20227;-63
2023/05/27 08:22:33;;;;;;;0.90;0.50;;;18.10;99.90;;;;;;5049359;28;20584;-63
2023/05/27 08:25:01;;;;;;;0.70;0.57;;;18.10;99.90;;;;;;5048145;28;20659;-63
2023/05/27 08:27:47;;;;;;;10.52;1.88;;;18.20;99.90;;;;;;5058924;28;20273;-63
2023/05/27 08:30:15;;;;;;;1.23;0.77;;;18.40;99.90;;;;;;5049074;28;20230;-62
2023/05/27 08:32:43;;;;;;;0.60;0.50;;;18.60;99.90;;;;;;5047699;28;20212;-63
2023/05/27 08:35:12;;;;;;;0.77;0.60;;;18.70;99.90;;;;;;5050819;28;20655;-64
2023/05/27 08:37:40;;;;;;;0.88;0.85;;;19.00;99.90;;;;;;5052074;28;20228;-63
2023/05/27 08:40:10;;;;;;;0.60;0.50;;;19.00;99.90;;;;;;5046474;28;20226;-63
2023/05/27 08:42:39;;;;;;;0.80;0.73;;;19.00;99.90;;;;;;5045859;28;20325;-64
2023/05/27 08:45:09;;;;;;;1.70;0.60;;;19.20;99.90;;;;;;5044469;28;20243;-63
2023/05/27 08:47:39;;;;;;;3.10;0.60;;;19.30;99.90;;;;;;5050884;28;20208;-64
2023/05/27 08:50:09;;;;;;;1.02;1.02;;;19.50;99.90;;;;;;5047923;28;20227;-63
2023/05/27 08:52:42;;;;;;;0.60;0.40;;;19.80;99.90;;;;;;5045370;28;20240;-63
2023/05/27 08:55:12;;;;;;;1.27;0.95;;;19.70;99.90;;;;;;5050334;28;20200;-63
2023/05/27 08:57:45;;;;;;;0.60;0.45;;;19.70;99.90;;;;;;5047218;28;20232;-63
2023/05/27 09:00:15;;;;;;;0.70;0.63;;;19.80;99.90;;;;;;5048200;28;20714;-63
2023/05/27 09:02:45;;;;;;;1.40;0.50;;;19.70;99.90;;;;;;5045903;28;20211;-63
2023/05/27 09:05:15;;;;;;;2.08;1.00;;;19.90;99.90;;;;;;5048358;28;20230;-63
2023/05/27 09:07:43;;;;;;;0.90;0.60;;;20.00;99.90;;;;;;5046419;28;20208;-63
2023/05/27 09:10:11;;;;;;;1.08;0.80;;;20.30;99.90;;;;;;5047231;28;20638;-64
2023/05/27 09:12:44;;;;;;;1.98;0.82;;;20.60;99.70;;;;;;5045468;28;20315;-63
2023/05/27 09:15:13;;;;;;;0.60;0.50;;;20.50;99.90;;;;;;5056642;28;20207;-65
2023/05/27 09:17:43;;;;;;;0.70;0.50;;;20.50;99.90;;;;;;5050420;28;20212;-63
2023/05/27 09:20:12;;;;;;;0.80;0.50;;;20.50;99.90;;;;;;5050819;28;20256;-63
2023/05/27 09:22:41;;;;;;;0.60;0.43;;;20.80;99.90;;;;;;5056286;28;20568;-63
2023/05/27 09:25:09;;;;;;;0.60;0.35;;;20.90;99.90;;;;;;5056929;28;20224;-63
2023/05/27 09:27:43;;;;;;;1.15;0.57;;;21.20;99.50;;;;;;5050710;28;20250;-63
2023/05/27 09:30:12;;;;;;;0.70;0.45;;;21.00;99.40;;;;;;5058258;28;20226;-63
2023/05/27 09:32:42;;;;;;;0.50;0.40;;;20.90;99.60;;;;;;5051481;28;20229;-63
2023/05/27 09:35:12;;;;;;;0.60;0.57;;;21.10;99.90;;;;;;5062186;28;20530;-62
2023/05/27 09:37:40;;;;;;;0.60;0.40;;;21.20;99.80;;;;;;5052264;28;20237;-63
2023/05/27 09:40:10;;;;;;;1.10;0.60;;;21.40;99.60;;;;;;5053050;28;20229;-63
2023/05/27 09:42:42;;;;;;;0.80;0.50;;;21.60;99.90;;;;;;5048946;28;20259;-63
2023/05/27 09:45:13;;;;;;;2.20;0.70;;;21.90;99.30;;;;;;5046709;28;20226;-63
2023/05/27 09:47:47;;;;;;;0.90;0.60;;;21.80;98.60;;;;;;5049928;28;20208;-63
2023/05/27 09:50:16;;;;;;;0.70;0.65;;;21.90;98.90;;;;;;5048938;28;20224;-64
2023/05/27 09:52:46;;;;;;;0.52;0.40;;;22.10;98.80;;;;;;5048835;28;20266;-64
2023/05/27 09:55:32;;;;;;;0.70;0.60;;;22.40;97.90;;;;;;5049641;28;20231;-65
2023/05/27 09:58:00;;;;;;;0.60;0.50;;;22.30;98.10;;;;;;5050812;28;20218;-64
2023/05/27 10:00:31;;;;;;;2.10;0.85;;;22.40;98.60;;;;;;5049342;28;20228;-64
2023/05/27 10:03:02;;;;;;;1.13;0.73;;;22.40;98.20;;;;;;5048116;28;20657;-64
2023/05/27 10:05:30;;;;;;;1.75;0.88;;;22.60;97.70;;;;;;5054411;28;20267;-63
2023/05/27 10:07:58;;;;;;;1.25;0.52;;;22.90;97.90;;;;;;5049738;28;20212;-64
2023/05/27 10:10:45;;;;;;;0.60;0.40;;;22.80;98.10;;;;;;5049203;28;20320;-64
2023/05/27 10:13:16;;;;;;;1.20;0.80;;;22.90;97.70;;;;;;5052595;28;20199;-64
2023/05/27 10:15:48;;;;;;;0.80;0.50;;;22.90;97.30;;;;;;5049108;28;20206;-64
2023/05/27 10:18:25;;;;;;;0.60;0.40;;;22.90;97.20;;;;;;5049299;28;20205;-64
2023/05/27 10:20:53;;;;;;;0.85;0.77;;;23.00;97.20;;;;;;5056975;28;20305;-64
2023/05/27 10:23:26;;;;;;;0.60;0.45;;;23.00;97.50;;;;;;5048229;28;20202;-63
2023/05/27 10:25:56;;;;;;;0.90;0.80;;;23.00;97.70;;;;;;5048345;28;20229;-63
2023/05/27 10:28:26;;;;;;;1.58;0.70;;;23.10;96.70;;;;;;5050870;28;20216;-64
2023/05/27 10:30:54;;;;;;;0.90;0.50;;;23.30;96.60;;;;;;5047407;28;20225;-64
2023/05/27 10:33:35;;;;;;;2.25;0.85;;;23.60;96.60;;;;;;5042928;28;20288;-63
2023/05/27 10:36:10;;;;;;;0.60;0.40;;;23.80;97.30;;;;;;5039991;28;20198;-62
2023/05/27 10:38:40;;;;;;;0.73;0.60;;;23.80;95.50;;;;;;5046614;28;20578;-63
2023/05/27 10:41:09;;;;;;;0.73;0.55;;;23.70;95.30;;;;;;5051269;28;20292;-63
2023/05/27 10:43:37;;;;;;;1.30;0.90;;;23.80;95.60;;;;;;5047941;28;20216;-62
2023/05/27 10:46:07;;;;;;;0.60;0.50;;;23.80;96.60;;;;;;5052869;28;20698;-62
2023/05/27 10:48:39;;;;;;;0.70;0.40;;;23.90;96.50;;;;;;5055203;28;20202;-63
2023/05/27 10:51:08;;;;;;;0.75;0.60;;;23.90;96.60;;;;;;5057784;28;20224;-63
2023/05/27 10:53:36;;;;;;;0.70;0.50;;;24.00;95.40;;;;;;5059166;28;20213;-61
2023/05/27 10:56:05;;;;;;;0.60;0.50;;;24.40;95.00;;;;;;5062965;28;20737;-63
2023/05/27 10:58:35;;;;;;;5.10;1.45;;;24.80;95.80;;;;;;5053240;28;20207;-62
2023/05/27 11:01:10;;;;;;;0.70;0.70;;;24.80;94.30;;;;;;5052376;28;20615;-63
2023/05/27 11:03:45;;;;;;;2.25;0.70;;;24.70;94.40;;;;;;5060900;28;20204;-63
2023/05/27 11:06:15;;;;;;;1.27;0.70;;;24.40;94.20;;;;;;5050488;28;20232;-62
2023/05/27 11:08:43;;;;;;;2.05;0.80;;;24.10;93.90;;;;;;5047344;28;20992;-64
2023/05/27 11:11:12;;;;;;;1.00;0.90;;;23.70;94.90;;;;;;5051193;28;20202;-64
2023/05/27 11:13:43;;;;;;;0.60;0.50;;;23.90;94.40;;;;;;5050221;28;20233;-63
2023/05/27 11:16:15;;;;;;;2.00;1.90;;;24.00;94.70;;;;;;5053332;28;20198;-65
2023/05/27 11:18:47;;;;;;;1.67;0.88;;;24.30;93.60;;;;;;5052619;28;20272;-63
2023/05/27 11:21:17;;;;;;;0.80;0.70;;;24.10;92.80;;;;;;5057561;28;20213;-63
2023/05/27 11:23:46;;;;;;;0.60;0.40;;;24.40;93.50;;;;;;5054517;28;20217;-63
2023/05/27 11:26:15;;;;;;;0.60;0.40;;;24.70;93.60;;;;;;5052641;28;20315;-64
2023/05/27 11:28:47;;;;;;;0.60;0.50;;;25.10;94.10;;;;;;5052802;28;20207;-63
2023/05/27 11:31:15;;;;;;;0.80;0.60;;;25.10;93.10;;;;;;5052297;28;21013;-63
2023/05/27 11:33:47;;;;;;;0.60;0.50;;;24.90;93.40;;;;;;5054094;28;20215;-64
2023/05/27 11:36:16;;;;;;;0.70;0.50;;;24.90;92.30;;;;;;5055065;28;20211;-63
2023/05/27 11:38:54;;;;;;;3.35;2.50;;;24.50;91.70;;;;;;5052644;28;20214;-64
2023/05/27 11:41:25;;;;;;;0.63;0.50;;;25.00;92.00;;;;;;5051745;28;20211;-63
2023/05/27 11:43:56;;;;;;;0.60;0.50;;;25.10;91.90;;;;;;5051153;28;20211;-63
2023/05/27 11:46:25;;;;;;;0.95;0.63;;;25.40;92.40;;;;;;5051479;28;20226;-64
2023/05/27 11:48:54;;;;;;;0.70;0.70;;;25.90;91.60;;;;;;5051780;28;20227;-64
2023/05/27 11:51:28;;;;;;;0.60;0.50;;;25.70;91.80;;;;;;5051370;28;20218;-64
2023/05/27 11:53:59;;;;;;;0.60;0.43;;;25.70;91.00;;;;;;5051304;28;20213;-63
2023/05/27 11:56:28;;;;;;;0.70;0.40;;;25.50;91.80;;;;;;5056073;28;20585;-65
2023/05/27 11:58:56;;;;;;;1.20;0.80;;;25.40;91.70;;;;;;5052007;28;20207;-64
2023/05/27 12:01:25;;;;;;;1.10;1.02;;;25.50;91.80;;;;;;5051387;28;20206;-64
2023/05/27 12:03:54;;;;;;;1.10;0.60;;;25.70;91.40;;;;;;5059807;28;20209;-63
2023/05/27 12:06:22;;;;;;;0.65;0.50;;;25.90;90.70;;;;;;5049822;28;20221;-64
2023/05/27 12:08:50;;;;;;;0.90;0.60;;;25.80;90.60;;;;;;5059768;28;20594;-63
2023/05/27 12:11:18;;;;;;;0.90;0.50;;;25.90;90.30;;;;;;5051931;28;20208;-64
2023/05/27 12:13:46;;;;;;;0.60;0.50;;;26.30;90.20;;;;;;5062627;28;20316;-64
2023/05/27 12:16:14;;;;;;;0.60;0.47;;;26.50;89.20;;;;;;5054668;28;20195;-63
2023/05/27 12:18:42;;;;;;;0.80;0.60;;;26.50;90.00;;;;;;5050744;28;20211;-64
2023/05/27 12:21:11;;;;;;;1.63;0.70;;;25.80;90.00;;;;;;5048249;28;20210;-63
2023/05/27 12:23:39;;;;;;;0.70;0.50;;;25.90;90.20;;;;;;5052474;28;20227;-63
2023/05/27 12:26:07;;;;;;;0.60;0.40;;;26.20;89.90;;;;;;5050863;28;20762;-63
2023/05/27 12:28:35;;;;;;;0.70;0.60;;;26.40;89.60;;;;;;5046254;28;20200;-64
2023/05/27 12:31:03;;;;;;;2.25;0.88;;;26.40;90.00;;;;;;5050428;28;20215;-64
2023/05/27 12:33:32;;;;;;;0.60;0.50;;;26.40;87.40;;;;;;5049335;28;20238;-63
2023/05/27 12:36:00;;;;;;;0.75;0.60;;;27.00;89.80;;;;;;5056250;28;20207;-64
2023/05/27 12:38:29;;;;;;;0.60;0.50;;;26.70;87.50;;;;;;5055101;28;20214;-64
2023/05/27 12:40:58;;;;;;;0.60;0.45;;;27.10;87.60;;;;;;5049314;28;20228;-64
2023/05/27 12:43:26;;;;;;;0.90;0.70;;;27.30;85.20;;;;;;5050401;28;20208;-64
2023/05/27 12:45:54;;;;;;;0.80;0.60;;;27.20;84.70;;;;;;5049487;28;20261;-64
2023/05/27 12:48:22;;;;;;;0.60;0.50;;;27.20;86.80;;;;;;5052653;28;20206;-63
2023/05/27 12:50:50;;;;;;;0.70;0.50;;;27.10;85.90;;;;;;5049680;28;20228;-64
2023/05/27 12:53:18;;;;;;;0.75;0.75;;;27.10;85.80;;;;;;5047701;28;20212;-64
2023/05/27 12:55:48;;;;;;;0.80;0.73;;;27.10;85.80;;;;;;5047941;28;20215;-64
2023/05/27 12:58:16;;;;;;;1.98;0.50;;;26.90;83.80;;;;;;5053604;28;20209;-64
2023/05/27 13:00:45;;;;;;;1.27;0.57;;;27.10;86.60;;;;;;5050371;28;20227;-64